createdAt,value
2018-12-14T00:00:19.210Z,14.00
2018-12-14T00:02:32.410Z,14.97
2018-12-14T00:04:37.027Z,14.73
2018-12-14T00:06:41.329Z,15.20
2018-12-14T00:08:45.754Z,15.20
2018-12-14T00:10:50.078Z,14.10
2018-12-14T00:12:54.489Z,14.90
2018-12-14T00:14:58.764Z,15.07
2018-12-14T00:17:03.101Z,14.50
2018-12-14T00:19:07.425Z,15.10
2018-12-14T00:21:11.820Z,15.40
2018-12-14T00:23:16.046Z,14.73
2018-12-14T00:25:20.364Z,14.10
2018-12-14T00:27:24.695Z,13.80
2018-12-14T00:29:28.822Z,14.70
2018-12-14T00:31:33.189Z,15.70
2018-12-14T00:33:37.760Z,15.70
2018-12-14T00:35:42.329Z,14.63
2018-12-14T00:37:46.850Z,15.67
2018-12-14T00:39:51.122Z,15.00
2018-12-14T00:41:55.522Z,14.90
2018-12-14T00:44:00.119Z,15.00
2018-12-14T00:46:04.639Z,14.90
2018-12-14T00:48:08.918Z,15.77
2018-12-14T00:50:13.268Z,16.40
2018-12-14T00:52:17.750Z,15.83
2018-12-14T00:54:22.099Z,15.97
2018-12-14T00:56:26.536Z,17.20
2018-12-14T00:58:30.835Z,16.60
2018-12-14T01:00:35.124Z,17.10
2018-12-14T01:02:39.558Z,16.60
2018-12-14T01:04:43.868Z,15.80
2018-12-14T01:06:48.542Z,14.87
2018-12-14T01:08:52.882Z,15.20
2018-12-14T01:10:57.355Z,16.40
2018-12-14T01:13:01.807Z,15.97
2018-12-14T01:15:06.086Z,15.40
2018-12-14T01:17:10.503Z,15.90
2018-12-14T01:19:14.893Z,15.10
2018-12-14T01:21:19.007Z,16.23
2018-12-14T01:23:23.435Z,16.57
2018-12-14T01:25:27.682Z,16.47
2018-12-14T01:27:32.169Z,15.50
2018-12-14T01:29:36.560Z,15.93
2018-12-14T01:31:40.854Z,15.33
2018-12-14T01:33:45.095Z,14.93
2018-12-14T01:35:49.381Z,16.03
2018-12-14T01:37:53.901Z,15.70
2018-12-14T01:39:58.326Z,16.57
2018-12-14T01:42:04.983Z,15.80
2018-12-14T01:44:08.932Z,16.47
2018-12-14T01:46:13.147Z,15.17
2018-12-14T01:48:17.352Z,15.07
2018-12-14T01:50:21.677Z,14.93
2018-12-14T01:52:26.126Z,14.70
2018-12-14T01:54:30.701Z,16.33
2018-12-14T01:56:35.239Z,15.90
2018-12-14T01:58:39.426Z,15.40
2018-12-14T02:00:43.715Z,15.23
2018-12-14T02:02:47.972Z,14.87
2018-12-14T02:04:52.174Z,15.80
2018-12-14T02:06:56.598Z,15.03
2018-12-14T02:09:00.903Z,15.47
2018-12-14T02:11:05.112Z,14.60
2018-12-14T02:13:09.456Z,15.20
2018-12-14T02:15:13.855Z,15.17
2018-12-14T02:17:18.062Z,14.73
2018-12-14T02:19:22.285Z,15.57
2018-12-14T02:21:26.604Z,15.17
2018-12-14T02:23:30.802Z,15.30
2018-12-14T02:25:35.015Z,15.30
2018-12-14T02:27:39.247Z,15.87
2018-12-14T02:29:43.573Z,15.80
2018-12-14T02:31:47.947Z,15.00
2018-12-14T02:33:52.175Z,15.30
2018-12-14T02:35:56.865Z,16.23
2018-12-14T02:38:01.489Z,15.20
2018-12-14T02:40:05.823Z,16.40
2018-12-14T02:42:10.116Z,16.00
2018-12-14T02:44:14.779Z,15.00
2018-12-14T02:46:19.206Z,15.60
2018-12-14T02:48:23.481Z,15.07
2018-12-14T02:50:27.825Z,15.83
2018-12-14T02:52:32.191Z,15.53
2018-12-14T02:54:36.429Z,15.13
2018-12-14T02:56:40.680Z,15.60
2018-12-14T02:58:59.588Z,16.27
2018-12-14T03:01:03.931Z,15.10
2018-12-14T03:03:08.135Z,15.93
2018-12-14T03:05:12.558Z,15.67
2018-12-14T03:07:16.787Z,15.73
2018-12-14T03:09:21.030Z,15.93
2018-12-14T03:11:25.427Z,16.10
2018-12-14T03:13:29.917Z,15.30
2018-12-14T03:15:34.245Z,16.60
2018-12-14T03:17:38.629Z,16.20
2018-12-14T03:19:43.248Z,15.60
2018-12-14T03:21:47.497Z,15.43
2018-12-14T03:23:51.576Z,15.23
2018-12-14T03:25:56.167Z,15.77
2018-12-14T03:28:00.423Z,14.90
2018-12-14T03:30:05.052Z,15.37
2018-12-14T03:32:09.218Z,15.27
2018-12-14T03:34:13.559Z,16.17
2018-12-14T03:36:17.920Z,16.57
2018-12-14T03:38:22.089Z,15.60
2018-12-14T03:40:26.606Z,15.87
2018-12-14T03:42:34.206Z,15.30
2018-12-14T03:44:37.296Z,15.90
2018-12-14T03:46:41.470Z,16.17
2018-12-14T03:48:45.827Z,14.87
2018-12-14T03:50:50.174Z,15.07
2018-12-14T03:52:54.662Z,16.53
2018-12-14T03:54:58.868Z,14.97
2018-12-14T03:57:03.186Z,15.37
2018-12-14T03:59:07.398Z,15.60
2018-12-14T04:01:11.635Z,15.47
2018-12-14T04:03:15.956Z,16.00
2018-12-14T04:05:20.824Z,15.50
2018-12-14T04:07:25.495Z,16.10
2018-12-14T04:09:30.024Z,15.50
2018-12-14T04:11:34.213Z,14.70
2018-12-14T04:13:38.443Z,15.07
2018-12-14T04:15:44.593Z,16.20
2018-12-14T04:17:50.644Z,15.60
2018-12-14T04:19:55.169Z,14.63
2018-12-14T04:21:59.499Z,15.60
2018-12-14T04:24:03.796Z,16.67
2018-12-14T04:26:08.218Z,16.30
2018-12-14T04:28:12.353Z,15.63
2018-12-14T04:30:16.828Z,14.80
2018-12-14T04:32:21.248Z,16.00
2018-12-14T04:34:25.682Z,14.37
2018-12-14T04:36:30.080Z,14.23
2018-12-14T04:38:34.596Z,15.30
2018-12-14T04:40:39.430Z,14.33
2018-12-14T04:42:48.855Z,15.70
2018-12-14T04:44:50.288Z,15.80
2018-12-14T04:46:55.004Z,14.57
2018-12-14T04:51:27.128Z,15.43
2018-12-14T04:53:31.065Z,16.00
2018-12-14T04:55:35.349Z,16.60
2018-12-14T04:57:39.637Z,15.90
2018-12-14T04:59:43.864Z,15.07
2018-12-14T05:01:48.297Z,14.77
2018-12-14T05:03:52.357Z,14.40
2018-12-14T05:05:57.791Z,15.73
2018-12-14T05:08:02.035Z,14.47
2018-12-14T05:10:06.762Z,15.70
2018-12-14T05:12:11.234Z,15.10
2018-12-14T05:14:16.608Z,15.33
2018-12-14T05:16:21.107Z,15.30
2018-12-14T05:18:25.474Z,16.27
2018-12-14T05:20:29.766Z,16.60
2018-12-14T05:22:34.181Z,15.80
2018-12-14T05:24:39.441Z,14.97
2018-12-14T05:26:43.846Z,15.43
2018-12-14T05:28:48.201Z,16.27
2018-12-14T05:30:52.571Z,16.20
2018-12-14T05:32:56.777Z,14.87
2018-12-14T05:35:01.428Z,14.90
2018-12-14T05:37:05.850Z,15.70
2018-12-14T05:39:10.056Z,14.60
2018-12-14T05:41:14.504Z,16.07
2018-12-14T05:43:18.849Z,16.30
2018-12-14T05:45:23.224Z,15.10
2018-12-14T05:47:27.419Z,15.43
2018-12-14T05:49:31.619Z,15.83
2018-12-14T05:51:36.104Z,14.73
2018-12-14T05:53:40.413Z,15.83
2018-12-14T05:55:44.642Z,15.93
2018-12-14T05:57:48.961Z,16.30
2018-12-14T05:59:53.398Z,16.07
2018-12-14T06:01:57.716Z,16.30
2018-12-14T06:04:02.246Z,15.27
2018-12-14T06:06:06.443Z,16.60
2018-12-14T06:08:10.734Z,15.80
2018-12-14T06:10:15.068Z,17.00
2018-12-14T06:12:19.557Z,16.10
2018-12-14T06:14:23.800Z,15.73
2018-12-14T06:16:28.347Z,16.00
2018-12-14T06:18:32.729Z,16.07
2018-12-14T06:20:37.185Z,16.80
2018-12-14T06:22:41.582Z,16.00
2018-12-14T06:24:46.011Z,16.30
2018-12-14T06:26:50.303Z,16.20
2018-12-14T06:28:55.739Z,16.13
2018-12-14T06:31:00.031Z,15.97
2018-12-14T06:33:04.403Z,15.80
2018-12-14T06:35:09.812Z,17.37
2018-12-14T06:37:13.909Z,16.73
2018-12-14T06:39:18.352Z,18.03
2018-12-14T06:41:22.663Z,17.13
2018-12-14T06:43:26.793Z,16.97
2018-12-14T06:45:30.864Z,17.27
2018-12-14T06:47:35.356Z,17.73
2018-12-14T06:49:39.564Z,17.43
2018-12-14T06:51:43.937Z,19.27
2018-12-14T06:53:48.139Z,19.03
2018-12-14T06:55:52.594Z,17.40
2018-12-14T06:57:56.915Z,18.63
2018-12-14T07:00:01.229Z,17.50
2018-12-14T07:02:05.697Z,16.80
2018-12-14T07:04:09.908Z,17.37
2018-12-14T07:06:18.329Z,17.73
2018-12-14T07:08:22.491Z,17.23
2018-12-14T07:10:26.886Z,17.07
2018-12-14T07:12:31.071Z,18.33
2018-12-14T07:14:35.197Z,16.50
2018-12-14T07:16:39.401Z,16.40
2018-12-14T07:18:43.704Z,17.23
2018-12-14T07:20:48.158Z,17.03
2018-12-14T07:22:52.441Z,16.40
2018-12-14T07:24:56.846Z,16.70
2018-12-14T07:27:01.121Z,17.43
2018-12-14T07:29:05.736Z,18.23
2018-12-14T07:31:10.005Z,17.30
2018-12-14T07:33:14.205Z,17.47
2018-12-14T07:35:18.318Z,17.40
2018-12-14T07:37:22.541Z,17.80
2018-12-14T07:39:26.998Z,18.00
2018-12-14T07:41:31.263Z,18.50
2018-12-14T07:43:35.688Z,16.93
2018-12-14T07:45:40.017Z,17.10
2018-12-14T07:47:44.097Z,17.27
2018-12-14T07:49:48.414Z,17.20
2018-12-14T07:51:52.615Z,17.50
2018-12-14T07:53:57.157Z,17.57
2018-12-14T07:56:01.360Z,17.00
2018-12-14T07:58:05.661Z,16.40
2018-12-14T08:00:10.292Z,17.60
2018-12-14T08:02:14.616Z,16.20
2018-12-14T08:04:19.322Z,17.97
2018-12-14T08:06:23.649Z,17.10
2018-12-14T08:08:27.713Z,18.27
2018-12-14T08:10:32.196Z,16.00
2018-12-14T08:12:36.380Z,17.20
2018-12-14T08:14:40.807Z,16.10
2018-12-14T08:16:45.019Z,18.03
2018-12-14T08:18:49.326Z,16.50
2018-12-14T08:20:53.654Z,15.93
2018-12-14T08:22:58.051Z,16.03
2018-12-14T08:25:02.498Z,17.67
2018-12-14T08:27:06.902Z,16.90
2018-12-14T08:29:11.227Z,16.30
2018-12-14T08:31:15.396Z,16.40
2018-12-14T08:33:19.726Z,16.60
2018-12-14T08:35:24.043Z,16.70
2018-12-14T08:37:28.345Z,17.70
2018-12-14T08:39:32.788Z,17.73
2018-12-14T08:41:37.973Z,17.27
2018-12-14T08:43:42.379Z,18.13
2018-12-14T08:45:46.583Z,19.50
2018-12-14T08:47:52.286Z,19.40
2018-12-14T08:49:56.397Z,19.53
2018-12-14T08:52:00.831Z,19.63
2018-12-14T08:54:05.127Z,17.53
2018-12-14T08:56:09.425Z,18.23
2018-12-14T08:58:13.657Z,17.30
2018-12-14T09:00:18.049Z,18.80
2018-12-14T09:02:22.366Z,20.37
2018-12-14T09:04:26.692Z,17.00
2018-12-14T09:06:31.021Z,19.80
2018-12-14T09:08:35.235Z,17.93
2018-12-14T09:10:39.827Z,18.83
2018-12-14T09:12:43.958Z,20.37
2018-12-14T09:14:48.384Z,20.67
2018-12-14T09:16:52.889Z,18.60
2018-12-14T09:18:57.233Z,17.90
2018-12-14T09:21:01.540Z,18.33
2018-12-14T09:23:06.038Z,18.67
2018-12-14T09:25:10.390Z,17.37
2018-12-14T09:27:16.020Z,18.80
2018-12-14T09:29:20.293Z,18.80
2018-12-14T09:31:24.994Z,18.07
2018-12-14T09:33:29.369Z,17.67
2018-12-14T09:35:33.643Z,18.87
2018-12-14T09:37:37.986Z,17.70
2018-12-14T09:39:42.321Z,18.20
2018-12-14T09:41:46.583Z,17.87
2018-12-14T09:43:54.404Z,18.03
2018-12-14T09:45:57.252Z,17.33
2018-12-14T09:48:01.607Z,17.80
2018-12-14T09:50:06.260Z,16.70
2018-12-14T09:52:10.436Z,17.70
2018-12-14T09:54:14.538Z,17.00
2018-12-14T09:56:18.931Z,17.97
2018-12-14T09:58:23.269Z,17.47
2018-12-14T10:00:27.634Z,17.80
2018-12-14T10:02:31.987Z,17.50
2018-12-14T10:04:36.446Z,17.20
2018-12-14T10:06:40.871Z,17.40
2018-12-14T10:08:45.470Z,16.97
2018-12-14T10:10:49.842Z,17.20
2018-12-14T10:12:54.067Z,16.37
2018-12-14T10:14:58.411Z,17.07
2018-12-14T10:17:03.026Z,17.03
2018-12-14T10:19:07.610Z,17.77
2018-12-14T10:21:11.978Z,16.30
2018-12-14T10:23:16.188Z,17.00
2018-12-14T10:25:20.772Z,17.13
2018-12-14T10:27:25.136Z,17.90
2018-12-14T10:29:29.315Z,17.20
2018-12-14T10:31:33.637Z,17.83
2018-12-14T10:33:37.927Z,17.60
2018-12-14T10:35:42.466Z,16.90
2018-12-14T10:37:46.897Z,16.70
2018-12-14T10:39:51.072Z,17.00
2018-12-14T10:41:55.410Z,18.60
2018-12-14T10:43:59.814Z,17.43
2018-12-14T10:46:04.344Z,17.10
2018-12-14T10:48:08.988Z,16.77
2018-12-14T10:50:13.224Z,16.60
2018-12-14T10:52:17.618Z,16.40
2018-12-14T10:54:22.262Z,16.40
2018-12-14T10:56:26.750Z,17.60
2018-12-14T10:58:31.346Z,16.60
2018-12-14T11:00:40.618Z,16.07
2018-12-14T11:02:45.118Z,15.80
2018-12-14T11:04:49.288Z,17.43
2018-12-14T11:06:53.969Z,15.80
2018-12-14T11:08:58.443Z,16.70
2018-12-14T11:11:03.252Z,16.67
2018-12-14T11:13:07.607Z,15.90
2018-12-14T11:15:12.515Z,16.60
2018-12-14T11:17:16.857Z,15.00
2018-12-14T11:19:21.047Z,16.33
2018-12-14T11:21:25.374Z,16.03
2018-12-14T11:23:29.705Z,16.47
2018-12-14T11:25:33.978Z,16.67
2018-12-14T11:27:38.099Z,15.80
2018-12-14T11:29:42.465Z,15.60
2018-12-14T11:31:46.633Z,16.53
2018-12-14T11:33:50.827Z,16.17
2018-12-14T11:35:55.163Z,16.43
2018-12-14T11:37:59.381Z,17.00
2018-12-14T11:42:18.540Z,14.77
2018-12-14T11:44:23.110Z,16.83
2018-12-14T11:46:27.816Z,16.70
2018-12-14T11:48:32.168Z,15.20
2018-12-14T11:50:36.360Z,16.30
2018-12-14T11:52:40.746Z,15.10
2018-12-14T11:54:45.152Z,15.50
2018-12-14T11:56:49.489Z,15.20
2018-12-14T11:58:53.652Z,15.63
2018-12-14T12:00:57.985Z,15.77
2018-12-14T12:03:02.302Z,15.97
2018-12-14T12:05:06.558Z,14.07
2018-12-14T12:07:11.063Z,15.67
2018-12-14T12:09:15.326Z,14.97
2018-12-14T12:11:19.450Z,14.57
2018-12-14T12:13:23.798Z,14.60
2018-12-14T12:15:28.023Z,15.00
2018-12-14T12:17:32.366Z,15.47
2018-12-14T12:19:36.595Z,14.40
2018-12-14T12:21:41.319Z,13.70
2018-12-14T12:23:45.777Z,14.93
2018-12-14T12:25:50.117Z,14.60
2018-12-14T12:27:54.318Z,14.57
2018-12-14T12:29:58.622Z,14.83
2018-12-14T12:32:03.145Z,15.10
2018-12-14T12:34:07.373Z,17.20
2018-12-14T12:36:12.186Z,16.30
2018-12-14T12:38:16.375Z,17.13
2018-12-14T12:40:21.891Z,16.07
2018-12-14T12:42:26.354Z,16.33
2018-12-14T12:44:33.655Z,16.07
2018-12-14T12:46:37.634Z,14.17
2018-12-14T12:48:42.566Z,14.90
2018-12-14T12:50:47.371Z,15.80
2018-12-14T12:52:52.038Z,16.50
2018-12-14T12:54:56.652Z,15.60
2018-12-14T12:57:01.097Z,15.77
2018-12-14T12:59:05.690Z,17.23
2018-12-14T13:01:10.236Z,16.80
2018-12-14T13:03:14.715Z,17.23
2018-12-14T13:05:20.263Z,15.13
2018-12-14T13:07:24.622Z,15.70
2018-12-14T13:09:29.073Z,17.13
2018-12-14T13:11:33.502Z,15.83
2018-12-14T13:13:37.665Z,20.37
2018-12-14T13:15:42.422Z,15.23
2018-12-14T13:17:46.795Z,15.90
2018-12-14T13:19:51.206Z,17.80
2018-12-14T13:21:55.491Z,15.93
2018-12-14T13:23:59.792Z,16.30
2018-12-14T13:26:04.125Z,15.60
2018-12-14T13:28:08.893Z,15.40
2018-12-14T13:30:13.484Z,14.40
2018-12-14T13:32:18.097Z,15.37
2018-12-14T13:34:22.913Z,15.83
2018-12-14T13:36:27.750Z,15.63
2018-12-14T13:38:32.553Z,14.83
2018-12-14T13:40:36.943Z,16.00
2018-12-14T13:42:42.032Z,15.53
2018-12-14T13:44:46.872Z,15.67
2018-12-14T13:46:51.426Z,15.47
2018-12-14T13:49:02.637Z,15.50
2018-12-14T13:51:02.529Z,16.43
2018-12-14T13:53:07.029Z,15.20
2018-12-14T13:55:11.649Z,15.57
2018-12-14T13:57:16.030Z,15.23
2018-12-14T13:59:20.413Z,15.73
2018-12-14T14:01:24.733Z,16.90
2018-12-14T14:03:29.168Z,15.77
2018-12-14T14:05:33.480Z,14.57
2018-12-14T14:07:38.221Z,14.37
2018-12-14T14:09:42.897Z,15.87
2018-12-14T14:11:47.778Z,17.37
2018-12-14T14:13:52.039Z,15.30
2018-12-14T14:15:56.505Z,15.63
2018-12-14T14:18:01.381Z,16.13
2018-12-14T14:20:05.847Z,14.83
2018-12-14T14:22:11.839Z,14.63
2018-12-14T14:24:16.187Z,14.50
2018-12-14T14:26:21.131Z,12.37
2018-12-14T14:28:25.438Z,12.47
2018-12-14T14:30:29.710Z,14.07
2018-12-14T14:32:34.156Z,13.23
2018-12-14T14:34:38.843Z,12.80
2018-12-14T14:36:43.525Z,13.30
2018-12-14T14:38:47.723Z,13.23
2018-12-14T14:40:52.226Z,13.07
2018-12-14T14:42:56.388Z,11.30
2018-12-14T14:45:00.981Z,11.80
2018-12-14T14:47:05.288Z,16.23
2018-12-14T14:49:09.642Z,13.43
2018-12-14T14:51:14.262Z,13.17
2018-12-14T14:53:18.763Z,13.00
2018-12-14T14:55:23.258Z,11.20
2018-12-14T14:57:28.140Z,12.80
2018-12-14T14:59:32.292Z,11.80
2018-12-14T15:01:36.701Z,11.80
2018-12-14T15:03:40.994Z,12.10
2018-12-14T15:05:45.345Z,12.63
2018-12-14T15:07:49.777Z,12.70
2018-12-14T15:09:54.078Z,13.70
2018-12-14T15:11:58.479Z,13.77
2018-12-14T15:14:02.860Z,12.87
2018-12-14T15:16:07.211Z,14.43
2018-12-14T15:18:11.446Z,13.50
2018-12-14T15:20:15.754Z,15.50
2018-12-14T15:22:19.988Z,14.60
2018-12-14T15:24:25.808Z,14.07
2018-12-14T15:26:29.852Z,13.93
2018-12-14T15:28:34.183Z,15.63
2018-12-14T15:30:38.559Z,15.57
2018-12-14T15:32:42.759Z,14.60
2018-12-14T15:34:46.915Z,15.53
2018-12-14T15:36:51.583Z,16.50
2018-12-14T15:38:56.112Z,14.80
2018-12-14T15:41:00.540Z,15.83
2018-12-14T15:43:04.798Z,16.23
2018-12-14T15:45:13.107Z,14.30
2018-12-14T15:47:15.791Z,15.30
2018-12-14T15:49:20.067Z,15.67
2018-12-14T15:51:25.394Z,15.23
2018-12-14T15:53:29.810Z,19.87
2018-12-14T15:55:34.198Z,20.70
2018-12-14T15:57:38.599Z,25.50
2018-12-14T15:59:42.970Z,22.53
2018-12-14T16:01:47.261Z,21.33
2018-12-14T16:03:51.671Z,18.73
2018-12-14T16:05:56.780Z,17.00
2018-12-14T16:08:01.427Z,16.57
2018-12-14T16:10:06.487Z,16.13
2018-12-14T16:12:11.579Z,16.50
2018-12-14T16:14:16.217Z,16.10
2018-12-14T16:16:20.808Z,15.60
2018-12-14T16:18:26.417Z,14.50
2018-12-14T16:20:30.886Z,15.57
2018-12-14T16:22:35.463Z,14.10
2018-12-14T16:24:39.761Z,15.23
2018-12-14T16:26:45.339Z,16.20
2018-12-14T16:28:50.129Z,15.30
2018-12-14T16:30:54.748Z,14.70
2018-12-14T16:32:59.166Z,15.27
2018-12-14T16:35:03.672Z,17.37
2018-12-14T16:37:08.187Z,15.37
2018-12-14T16:39:12.464Z,16.17
2018-12-14T16:41:16.991Z,15.30
2018-12-14T16:43:21.326Z,16.00
2018-12-14T16:45:26.607Z,17.00
2018-12-14T16:47:31.300Z,22.60
2018-12-14T16:49:35.725Z,22.03
2018-12-14T16:51:39.998Z,18.83
2018-12-14T16:53:49.210Z,20.33
2018-12-14T16:55:53.575Z,19.80
2018-12-14T16:57:57.955Z,24.10
2018-12-14T17:00:03.290Z,25.00
2018-12-14T17:02:07.896Z,20.77
2018-12-14T17:04:12.497Z,26.63
2018-12-14T17:06:17.271Z,19.47
2018-12-14T17:08:21.767Z,17.53
2018-12-14T17:10:26.119Z,17.73
2018-12-14T17:12:30.668Z,18.63
2018-12-14T17:14:35.991Z,17.27
2018-12-14T17:16:40.207Z,17.70
2018-12-14T17:18:44.539Z,16.40
2018-12-14T17:20:48.858Z,16.97
2018-12-14T17:22:53.321Z,15.90
2018-12-14T17:24:57.930Z,15.80
2018-12-14T17:27:02.503Z,16.43
2018-12-14T17:29:06.973Z,18.37
2018-12-14T17:31:11.472Z,18.10
2018-12-14T17:33:15.863Z,17.50
2018-12-14T17:35:20.823Z,17.03
2018-12-14T17:37:26.076Z,18.40
2018-12-14T17:39:30.593Z,17.97
2018-12-14T17:41:35.282Z,18.50
2018-12-14T17:43:39.406Z,17.07
2018-12-14T17:45:43.881Z,17.00
2018-12-14T17:47:48.858Z,16.97
2018-12-14T17:49:53.554Z,17.70
2018-12-14T17:51:57.985Z,16.97
2018-12-14T17:54:02.393Z,17.40
2018-12-14T17:56:07.930Z,16.00
2018-12-14T17:58:12.327Z,15.93
2018-12-14T18:00:17.804Z,16.43
2018-12-14T18:02:21.918Z,17.03
2018-12-14T18:04:26.306Z,15.60
2018-12-14T18:06:30.646Z,17.10
2018-12-14T18:08:34.912Z,16.60
2018-12-14T18:10:39.540Z,15.63
2018-12-14T18:12:43.980Z,17.53
2018-12-14T18:14:48.306Z,28.07
2018-12-14T18:16:52.795Z,69.50
2018-12-14T18:18:56.990Z,76.87
2018-12-14T18:21:01.671Z,37.57
2018-12-14T18:23:06.081Z,23.60
2018-12-14T18:25:10.701Z,19.07
2018-12-14T18:27:15.014Z,21.50
2018-12-14T18:29:19.305Z,20.90
2018-12-14T18:31:23.741Z,19.50
2018-12-14T18:33:29.583Z,16.57
2018-12-14T18:35:34.094Z,17.20
2018-12-14T18:37:38.450Z,15.33
2018-12-14T18:39:42.626Z,16.30
2018-12-14T18:41:47.130Z,17.50
2018-12-14T18:43:51.601Z,18.17
2018-12-14T18:45:56.387Z,16.50
2018-12-14T18:48:02.862Z,17.50
2018-12-14T18:50:09.672Z,17.43
2018-12-14T18:52:14.461Z,17.03
2018-12-14T18:54:18.947Z,14.87
2018-12-14T18:56:23.318Z,15.17
2018-12-14T18:58:27.798Z,15.10
2018-12-14T19:00:32.306Z,16.50
2018-12-14T19:02:36.956Z,17.17
2018-12-14T19:04:42.498Z,15.90
2018-12-14T19:06:48.038Z,15.30
2018-12-14T19:08:52.773Z,15.67
2018-12-14T19:10:57.401Z,16.27
2018-12-14T19:13:03.349Z,16.10
2018-12-14T19:15:07.873Z,15.53
2018-12-14T19:17:12.206Z,15.90
2018-12-14T19:19:17.238Z,15.40
2018-12-14T19:21:22.755Z,14.90
2018-12-14T19:23:27.233Z,14.97
2018-12-14T19:25:31.496Z,15.17
2018-12-14T19:27:37.053Z,16.13
2018-12-14T19:29:41.387Z,17.23
2018-12-14T19:31:45.866Z,15.63
2018-12-14T19:33:50.596Z,16.50
2018-12-14T19:35:55.049Z,17.03
2018-12-14T19:38:00.607Z,15.77
2018-12-14T19:40:05.732Z,17.87
2018-12-14T19:42:10.361Z,17.17
2018-12-14T19:44:14.850Z,17.50
2018-12-14T19:46:20.218Z,17.83
2018-12-14T19:48:26.959Z,18.20
2018-12-14T19:50:32.981Z,18.07
2018-12-14T19:52:38.427Z,18.07
2018-12-14T19:54:44.531Z,18.10
2018-12-14T19:56:49.204Z,18.00
2018-12-14T19:58:53.529Z,18.60
2018-12-14T20:00:58.063Z,19.03
2018-12-14T20:03:02.253Z,21.97
2018-12-14T20:05:06.951Z,19.60
2018-12-14T20:07:11.778Z,18.23
2018-12-14T20:09:16.177Z,17.77
2018-12-14T20:11:20.746Z,16.27
2018-12-14T20:13:26.155Z,17.13
2018-12-14T20:15:30.585Z,18.60
2018-12-14T20:17:34.823Z,16.70
2018-12-14T20:19:39.207Z,20.43
2018-12-14T20:21:43.754Z,18.30
2018-12-14T20:23:48.158Z,16.50
2018-12-14T20:25:55.216Z,18.53
2018-12-14T20:27:59.868Z,17.87
2018-12-14T20:30:04.408Z,18.60
2018-12-14T20:32:08.634Z,17.27
2018-12-14T20:34:13.596Z,17.20
2018-12-14T20:36:18.053Z,16.80
2018-12-14T20:38:22.495Z,16.70
2018-12-14T20:40:26.848Z,15.80
2018-12-14T20:42:31.917Z,16.30
2018-12-14T20:44:36.322Z,15.80
2018-12-14T20:46:40.650Z,16.47
2018-12-14T20:48:44.907Z,16.47
2018-12-14T20:50:49.396Z,16.07
2018-12-14T20:52:53.816Z,16.90
2018-12-14T20:54:58.327Z,16.90
2018-12-14T20:57:02.619Z,16.73
2018-12-14T20:59:06.841Z,16.37
2018-12-14T21:01:11.169Z,16.60
2018-12-14T21:03:15.243Z,16.27
2018-12-14T21:05:19.949Z,16.40
2018-12-14T21:07:24.632Z,16.37
2018-12-14T21:09:29.076Z,16.20
2018-12-14T21:11:33.540Z,17.00
2018-12-14T21:13:37.980Z,17.30
2018-12-14T21:15:42.237Z,16.80
2018-12-14T21:17:46.660Z,17.70
2018-12-14T21:19:50.951Z,17.90
2018-12-14T21:21:55.785Z,18.50
2018-12-14T21:24:00.268Z,17.03
2018-12-14T21:26:04.877Z,18.67
2018-12-14T21:28:09.739Z,19.57
2018-12-14T21:30:14.205Z,17.77
2018-12-14T21:32:18.539Z,15.70
2018-12-14T21:34:23.089Z,17.10
2018-12-14T21:36:27.932Z,17.77
2018-12-14T21:38:32.677Z,16.70
2018-12-14T21:40:37.186Z,16.47
2018-12-14T21:42:41.463Z,16.63
2018-12-14T21:44:45.798Z,17.20
2018-12-14T21:46:51.797Z,16.57
2018-12-14T21:48:57.092Z,16.43
2018-12-14T21:51:01.468Z,16.10
2018-12-14T21:53:06.008Z,15.23
2018-12-14T21:55:10.422Z,15.90
2018-12-14T21:57:15.183Z,16.70
2018-12-14T21:59:20.108Z,17.40
2018-12-14T22:01:24.471Z,16.77
2018-12-14T22:03:29.384Z,16.23
2018-12-14T22:05:33.976Z,15.10
2018-12-14T22:07:38.351Z,15.13
2018-12-14T22:09:42.761Z,14.60
2018-12-14T22:11:47.467Z,14.93
2018-12-14T22:13:51.902Z,16.67
2018-12-14T22:15:56.119Z,14.20
2018-12-14T22:18:00.390Z,13.60
2018-12-14T22:20:05.215Z,14.97
2018-12-14T22:22:09.555Z,12.97
2018-12-14T22:24:14.408Z,12.90
2018-12-14T22:26:18.792Z,11.90
2018-12-14T22:28:24.048Z,11.47
2018-12-14T22:30:28.562Z,11.33
2018-12-14T22:32:32.918Z,11.97
2018-12-14T22:34:37.330Z,11.10
2018-12-14T22:36:41.822Z,11.40
2018-12-14T22:38:46.446Z,11.50
2018-12-14T22:40:50.751Z,9.47
2018-12-14T22:42:54.956Z,9.77
2018-12-14T22:44:59.153Z,10.40
2018-12-14T22:47:04.109Z,9.97
2018-12-14T22:49:08.406Z,10.30
2018-12-14T22:51:13.130Z,10.10
2018-12-14T22:53:18.072Z,10.00
2018-12-14T22:55:22.556Z,10.43
2018-12-14T22:57:27.094Z,9.87
2018-12-14T22:59:31.668Z,9.60
2018-12-14T23:01:36.302Z,10.10
2018-12-14T23:03:40.862Z,9.87
2018-12-14T23:05:45.178Z,9.83
2018-12-14T23:07:49.502Z,9.50
2018-12-14T23:09:53.563Z,9.47
2018-12-14T23:11:58.255Z,9.87
2018-12-14T23:14:02.748Z,9.60
2018-12-14T23:16:06.916Z,10.17
2018-12-14T23:18:11.243Z,9.70
2018-12-14T23:20:15.584Z,10.43
2018-12-14T23:22:19.996Z,11.00
2018-12-14T23:24:24.423Z,9.70
2018-12-14T23:26:28.618Z,11.60
2018-12-14T23:28:32.937Z,11.83
2018-12-14T23:30:37.270Z,11.57
2018-12-14T23:32:41.463Z,10.23
2018-12-14T23:34:45.799Z,10.70
2018-12-14T23:36:50.082Z,11.73
2018-12-14T23:38:54.212Z,12.03
2018-12-14T23:40:58.504Z,11.43
2018-12-14T23:43:02.871Z,11.60
2018-12-14T23:45:07.478Z,10.23
2018-12-14T23:47:11.670Z,10.90
2018-12-14T23:49:15.984Z,10.40
2018-12-14T23:51:20.181Z,10.70
2018-12-14T23:53:24.501Z,10.83
2018-12-14T23:55:28.776Z,10.37
2018-12-14T23:57:33.125Z,10.03
2018-12-14T23:59:37.959Z,10.60
